Time;durP1;ratioP1;P1;durP2;ratioP2;P2;SDS_P1;SDS_P2;PMS_P1;PMS_P2;Temp;Humidity;BMP_temperature;BMP_pressure;BME280_temperature;BME280_humidity;BME280_pressure;Samples;Min_cycle;Max_cycle;Signal;HPM_P1;HPM_P2
2023/11/29 00:02:26;;;;;;;0.65;0.60;;;3.00;99.90;;;;;;5026410;28;20056;-80
2023/11/29 00:04:54;;;;;;;0.98;0.88;;;3.00;99.90;;;;;;5001088;28;20060;-80
2023/11/29 00:07:21;;;;;;;1.33;0.90;;;3.00;99.90;;;;;;5015942;28;20068;-79
2023/11/29 00:09:47;;;;;;;1.05;0.80;;;3.00;1.00;;;;;;5008714;28;20049;-79
2023/11/29 00:12:14;;;;;;;1.00;0.68;;;3.00;1.00;;;;;;5005994;28;20050;-79
2023/11/29 00:14:41;;;;;;;0.60;0.47;;;3.00;1.00;;;;;;5030996;28;20395;-80
2023/11/29 00:17:10;;;;;;;0.85;0.70;;;3.00;1.00;;;;;;5026301;28;20445;-80
2023/11/29 00:19:40;;;;;;;0.90;0.70;;;3.00;1.00;;;;;;5026218;28;20067;-80
2023/11/29 00:22:07;;;;;;;0.85;0.63;;;3.00;1.00;;;;;;4993887;28;20060;-79
2023/11/29 00:24:34;;;;;;;1.45;0.80;;;2.90;1.00;;;;;;5005758;28;20375;-80
2023/11/29 00:27:01;;;;;;;1.30;0.80;;;3.00;1.00;;;;;;5023739;28;20069;-79
2023/11/29 00:29:28;;;;;;;1.08;0.70;;;2.90;1.00;;;;;;5007701;28;20051;-80
2023/11/29 00:31:55;;;;;;;0.40;0.40;;;2.90;1.00;;;;;;5025642;28;20049;-79
2023/11/29 00:34:22;;;;;;;0.52;0.50;;;2.90;1.00;;;;;;5027103;28;20053;-79
2023/11/29 00:36:51;;;;;;;0.55;0.50;;;2.90;1.00;;;;;;5009162;28;20416;-79
2023/11/29 00:39:20;;;;;;;1.05;0.70;;;2.90;1.00;;;;;;5025979;28;20056;-79
2023/11/29 00:41:48;;;;;;;1.25;0.60;;;2.90;1.00;;;;;;4993805;28;20050;-79
2023/11/29 00:44:15;;;;;;;1.23;0.73;;;2.90;1.00;;;;;;5025682;28;20053;-80
2023/11/29 00:46:42;;;;;;;1.08;0.70;;;2.90;1.00;;;;;;5025599;28;20560;-80
2023/11/29 00:49:09;;;;;;;1.40;0.70;;;2.90;1.00;;;;;;4992895;28;20072;-80
2023/11/29 00:51:36;;;;;;;0.95;0.70;;;2.80;1.00;;;;;;5025105;28;20115;-80
2023/11/29 00:54:03;;;;;;;1.02;0.70;;;2.80;1.00;;;;;;5008109;28;20110;-80
2023/11/29 00:56:30;;;;;;;0.57;0.57;;;2.90;1.00;;;;;;5025039;28;20071;-79
2023/11/29 00:58:57;;;;;;;0.90;0.57;;;2.90;1.40;;;;;;5025454;28;20041;-80
2023/11/29 01:01:24;;;;;;;1.42;0.82;;;2.90;1.00;;;;;;5025968;28;20061;-80
2023/11/29 01:03:51;;;;;;;1.23;0.75;;;2.90;6.30;;;;;;5022268;28;20046;-80
2023/11/29 01:06:18;;;;;;;1.10;0.70;;;2.90;17.30;;;;;;5004985;28;20049;-79
2023/11/29 01:08:45;;;;;;;0.85;0.63;;;3.00;46.10;;;;;;5024532;28;20072;-80
2023/11/29 01:11:12;;;;;;;0.65;0.50;;;3.00;1.00;;;;;;4992171;28;20053;-80
2023/11/29 01:13:39;;;;;;;1.17;0.60;;;3.00;25.80;;;;;;5008669;28;20076;-79
2023/11/29 01:16:07;;;;;;;1.30;0.70;;;3.10;75.40;;;;;;5008858;28;20072;-80
2023/11/29 01:18:33;;;;;;;1.08;0.65;;;3.10;73.60;;;;;;5009152;28;20058;-79
2023/11/29 01:21:01;;;;;;;0.52;0.45;;;3.00;99.90;;;;;;4992258;28;20045;-80
2023/11/29 01:23:27;;;;;;;0.80;0.52;;;3.10;99.90;;;;;;5023852;28;20600;-79
2023/11/29 01:25:54;;;;;;;0.80;0.60;;;3.10;99.90;;;;;;5007790;28;20053;-79
2023/11/29 01:28:22;;;;;;;0.80;0.55;;;3.10;99.90;;;;;;4992317;28;20077;-80
2023/11/29 01:30:48;;;;;;;0.43;0.43;;;3.20;99.90;;;;;;5024707;28;20107;-79
2023/11/29 01:33:16;;;;;;;0.47;0.47;;;3.20;99.90;;;;;;5024131;28;20558;-79
2023/11/29 01:35:43;;;;;;;1.17;0.68;;;3.20;85.20;;;;;;4991788;28;20056;-80
2023/11/29 01:38:10;;;;;;;0.93;0.60;;;3.30;1.00;;;;;;5023610;28;20080;-79
2023/11/29 01:40:36;;;;;;;1.67;0.80;;;3.40;1.00;;;;;;5008218;28;20424;-80
2023/11/29 01:43:03;;;;;;;0.73;0.57;;;3.40;99.90;;;;;;5023912;28;20450;-80
2023/11/29 01:45:30;;;;;;;1.25;0.70;;;3.40;99.90;;;;;;5008301;28;20072;-80
2023/11/29 01:47:57;;;;;;;0.93;0.80;;;3.40;99.90;;;;;;5025523;28;20466;-80
2023/11/29 01:50:27;;;;;;;1.02;0.70;;;3.40;99.90;;;;;;5008235;28;20056;-79
2023/11/29 01:52:54;;;;;;;0.85;0.70;;;3.40;99.90;;;;;;4991326;28;20049;-80
2023/11/29 01:55:21;;;;;;;0.75;0.55;;;3.40;99.90;;;;;;5007861;28;20045;-80
2023/11/29 01:57:49;;;;;;;0.70;0.63;;;3.40;1.00;;;;;;5008231;28;20049;-79
2023/11/29 02:00:16;;;;;;;0.90;0.60;;;3.50;1.00;;;;;;5024448;28;20664;-80
2023/11/29 02:02:43;;;;;;;1.45;0.90;;;3.50;66.90;;;;;;5017445;28;20045;-79
2023/11/29 02:05:10;;;;;;;0.75;0.65;;;3.50;92.90;;;;;;5016661;28;20085;-79
2023/11/29 02:07:38;;;;;;;0.98;0.75;;;3.40;14.80;;;;;;5024122;28;20405;-79
2023/11/29 02:10:06;;;;;;;0.82;0.68;;;3.40;99.90;;;;;;4996549;28;20057;-79
2023/11/29 02:12:33;;;;;;;0.70;0.60;;;3.50;99.90;;;;;;4991560;28;20050;-79
2023/11/29 02:15:00;;;;;;;1.05;0.70;;;3.50;99.90;;;;;;4990584;28;20126;-78
2023/11/29 02:17:27;;;;;;;0.40;0.40;;;3.50;99.90;;;;;;5004784;28;20152;-79
2023/11/29 02:19:55;;;;;;;1.20;0.63;;;3.50;99.90;;;;;;5021204;28;20050;-79
2023/11/29 02:22:23;;;;;;;0.55;0.43;;;3.50;99.90;;;;;;5024345;28;20045;-79
2023/11/29 02:24:50;;;;;;;0.80;0.60;;;3.50;99.90;;;;;;4990889;28;20053;-79
2023/11/29 02:27:16;;;;;;;1.25;0.85;;;3.50;99.90;;;;;;4991634;28;20057;-79
2023/11/29 02:29:43;;;;;;;0.60;0.40;;;3.60;99.90;;;;;;5024062;28;20104;-79
2023/11/29 02:32:10;;;;;;;0.80;0.57;;;3.70;99.90;;;;;;5021370;28;20058;-79
2023/11/29 02:34:37;;;;;;;0.80;0.60;;;3.70;26.30;;;;;;5022648;28;20104;-80
2023/11/29 02:37:04;;;;;;;1.00;0.60;;;3.80;99.90;;;;;;5025815;28;20049;-80
2023/11/29 02:39:31;;;;;;;0.93;0.60;;;3.80;99.90;;;;;;5008184;28;20497;-79
2023/11/29 02:41:58;;;;;;;0.55;0.50;;;3.90;99.90;;;;;;5009463;28;20095;-80
2023/11/29 02:44:24;;;;;;;0.57;0.47;;;3.90;99.90;;;;;;5009346;28;20384;-80
2023/11/29 02:46:52;;;;;;;1.35;0.50;;;4.00;99.90;;;;;;5008345;28;20060;-79
2023/11/29 02:49:18;;;;;;;1.52;0.60;;;4.00;99.90;;;;;;4992182;28;20053;-80
2023/11/29 02:51:45;;;;;;;0.88;0.52;;;4.10;85.10;;;;;;5007582;28;20092;-80
2023/11/29 02:54:12;;;;;;;1.02;0.60;;;4.10;17.00;;;;;;4988940;28;20049;-80
2023/11/29 02:56:39;;;;;;;0.85;0.60;;;4.20;1.00;;;;;;5011887;28;20045;-80
2023/11/29 02:59:07;;;;;;;1.55;0.70;;;4.20;1.00;;;;;;5010893;28;20053;-80
2023/11/29 03:01:34;;;;;;;1.05;0.60;;;4.20;1.00;;;;;;5029467;28;20471;-80
2023/11/29 03:04:01;;;;;;;1.13;0.73;;;4.30;1.00;;;;;;5027724;28;20049;-79
2023/11/29 03:06:28;;;;;;;0.57;0.50;;;4.20;1.00;;;;;;5010783;28;20075;-80
2023/11/29 03:08:55;;;;;;;1.35;0.70;;;4.30;1.00;;;;;;4994321;28;20633;-80
2023/11/29 03:11:22;;;;;;;1.00;0.60;;;4.30;1.00;;;;;;5027961;28;20517;-79
2023/11/29 03:13:49;;;;;;;0.70;0.68;;;4.30;1.00;;;;;;5028265;28;20049;-80
2023/11/29 03:16:16;;;;;;;1.10;0.63;;;4.30;1.00;;;;;;5028688;28;20256;-79
2023/11/29 03:18:43;;;;;;;0.70;0.60;;;4.40;99.90;;;;;;5027603;28;20728;-79
2023/11/29 03:21:09;;;;;;;0.80;0.60;;;4.40;99.90;;;;;;4994818;28;20049;-79
2023/11/29 03:23:36;;;;;;;0.80;0.55;;;4.40;99.90;;;;;;5027109;28;20052;-80
2023/11/29 03:26:04;;;;;;;1.95;1.00;;;4.40;99.90;;;;;;5010246;28;20128;-80
2023/11/29 03:28:31;;;;;;;1.08;0.70;;;4.50;99.90;;;;;;5029088;28;20049;-79
2023/11/29 03:30:58;;;;;;;1.55;0.93;;;4.50;99.90;;;;;;5011000;28;20049;-79
2023/11/29 03:33:24;;;;;;;0.95;0.65;;;4.50;99.90;;;;;;5010134;28;20049;-79
2023/11/29 03:35:51;;;;;;;0.88;0.60;;;4.50;99.90;;;;;;5028989;28;20045;-80
2023/11/29 03:38:18;;;;;;;1.13;0.57;;;4.50;99.90;;;;;;5010089;28;20434;-80
2023/11/29 03:40:45;;;;;;;2.35;0.75;;;4.60;99.90;;;;;;5026660;28;20045;-80
2023/11/29 03:43:12;;;;;;;1.77;0.50;;;4.60;99.90;;;;;;5027001;28;20056;-79
2023/11/29 03:45:39;;;;;;;0.90;0.50;;;4.60;1.00;;;;;;5027033;28;20044;-80
2023/11/29 03:48:06;;;;;;;1.13;0.73;;;4.60;99.90;;;;;;5010764;28;20053;-79
2023/11/29 03:50:34;;;;;;;1.52;0.93;;;4.70;99.90;;;;;;5027172;28;20194;-80
2023/11/29 03:53:01;;;;;;;0.75;0.60;;;4.70;99.90;;;;;;5009656;28;20132;-79
2023/11/29 03:55:27;;;;;;;0.73;0.60;;;4.70;99.90;;;;;;5026548;28;20049;-79
2023/11/29 03:57:54;;;;;;;1.02;0.93;;;4.70;99.90;;;;;;5010211;28;20057;-80
2023/11/29 04:00:22;;;;;;;1.15;0.80;;;4.70;99.90;;;;;;4994529;28;20111;-79
2023/11/29 04:02:49;;;;;;;0.93;0.65;;;4.80;99.90;;;;;;5010305;28;20045;-79
2023/11/29 04:05:16;;;;;;;0.50;0.40;;;4.80;99.90;;;;;;5026216;28;20529;-80
2023/11/29 04:07:44;;;;;;;0.65;0.60;;;4.80;99.90;;;;;;5010188;28;20046;-79
2023/11/29 04:10:10;;;;;;;1.48;0.80;;;4.80;99.90;;;;;;5025758;28;20053;-80
2023/11/29 04:12:38;;;;;;;0.70;0.70;;;4.80;99.90;;;;;;5026758;28;20092;-79
2023/11/29 04:15:06;;;;;;;0.85;0.60;;;4.70;99.90;;;;;;5010211;28;20045;-79
2023/11/29 04:17:32;;;;;;;0.60;0.50;;;4.80;99.90;;;;;;5010736;28;20845;-80
2023/11/29 04:20:00;;;;;;;1.35;0.80;;;4.70;99.90;;;;;;5028292;28;20393;-80
2023/11/29 04:22:27;;;;;;;0.85;0.60;;;4.70;99.90;;;;;;5025758;28;20099;-80
2023/11/29 04:24:54;;;;;;;1.50;0.85;;;4.70;99.90;;;;;;5009511;28;20061;-79
2023/11/29 04:27:20;;;;;;;1.13;0.82;;;4.70;99.90;;;;;;5009876;28;20065;-80
2023/11/29 04:29:47;;;;;;;0.70;0.70;;;4.70;99.90;;;;;;4993987;28;20095;-80
2023/11/29 04:32:15;;;;;;;0.85;0.80;;;4.60;99.90;;;;;;4994018;28;20049;-79
2023/11/29 04:34:42;;;;;;;1.10;0.60;;;4.60;99.90;;;;;;4993490;28;20626;-80
2023/11/29 04:37:14;;;;;;;1.27;0.77;;;4.60;99.90;;;;;;5025619;28;20068;-79
2023/11/29 04:39:42;;;;;;;1.10;0.80;;;4.50;99.90;;;;;;5009085;28;20047;-79
2023/11/29 04:42:08;;;;;;;1.55;0.80;;;4.50;99.90;;;;;;5025989;28;20056;-80
2023/11/29 04:44:35;;;;;;;0.88;0.70;;;4.40;1.00;;;;;;5009923;28;20053;-80
2023/11/29 04:47:03;;;;;;;1.55;0.73;;;4.40;1.00;;;;;;4993322;28;20744;-80
2023/11/29 04:49:30;;;;;;;1.13;0.80;;;4.30;56.60;;;;;;5025916;28;20520;-79
2023/11/29 04:51:57;;;;;;;0.57;0.52;;;4.30;67.00;;;;;;5009142;28;20045;-79
2023/11/29 04:54:24;;;;;;;1.00;0.60;;;4.30;74.00;;;;;;5024642;28;20107;-79
2023/11/29 04:56:51;;;;;;;0.73;0.60;;;4.30;78.10;;;;;;5009546;28;20053;-80
2023/11/29 04:59:18;;;;;;;1.25;0.60;;;4.20;99.90;;;;;;5009233;28;20053;-79
2023/11/29 05:01:45;;;;;;;1.75;0.70;;;4.20;99.90;;;;;;4993558;28;20042;-79
2023/11/29 05:04:12;;;;;;;1.65;1.08;;;4.20;99.90;;;;;;5025424;28;20053;-79
2023/11/29 05:06:39;;;;;;;1.60;0.57;;;4.20;99.90;;;;;;5008662;28;20049;-80
2023/11/29 05:09:06;;;;;;;0.50;0.50;;;4.20;1.00;;;;;;5008488;28;20626;-79
2023/11/29 05:11:33;;;;;;;0.77;0.50;;;4.20;3.00;;;;;;5009387;28;20056;-80
2023/11/29 05:14:00;;;;;;;1.25;0.60;;;4.20;99.90;;;;;;5009538;28;20057;-79
2023/11/29 05:16:28;;;;;;;0.70;0.70;;;4.20;83.80;;;;;;5025096;28;20060;-79
2023/11/29 05:18:55;;;;;;;0.50;0.50;;;4.10;21.30;;;;;;5027247;28;20191;-79
2023/11/29 05:21:22;;;;;;;1.05;0.90;;;4.10;99.90;;;;;;4993070;28;20072;-79
2023/11/29 05:23:49;;;;;;;0.50;0.50;;;4.20;99.90;;;;;;4992648;28;20111;-80
2023/11/29 05:26:16;;;;;;;0.68;0.60;;;4.10;99.90;;;;;;4992542;28;20433;-79
2023/11/29 05:28:43;;;;;;;1.30;0.75;;;4.20;99.90;;;;;;4992673;28;20046;-79
2023/11/29 05:31:10;;;;;;;0.52;0.52;;;4.10;99.90;;;;;;4993163;28;20049;-79
2023/11/29 05:33:37;;;;;;;1.13;0.63;;;4.10;99.90;;;;;;4992855;28;20059;-80
2023/11/29 05:36:06;;;;;;;0.60;0.60;;;4.10;1.00;;;;;;5009435;28;20095;-78
2023/11/29 05:38:33;;;;;;;0.32;0.32;;;4.00;1.00;;;;;;5008765;28;20132;-79
2023/11/29 05:41:00;;;;;;;1.00;0.70;;;3.90;99.90;;;;;;5008761;28;20176;-80
2023/11/29 05:43:27;;;;;;;1.85;0.80;;;3.80;99.90;;;;;;5004882;28;20569;-79
2023/11/29 05:45:54;;;;;;;1.08;0.57;;;3.70;99.90;;;;;;5005258;28;20128;-80
2023/11/29 05:48:22;;;;;;;1.27;0.77;;;3.60;99.90;;;;;;5005211;28;20041;-79
2023/11/29 05:50:49;;;;;;;1.05;0.73;;;3.50;1.00;;;;;;5023977;28;20512;-80
2023/11/29 05:53:17;;;;;;;0.93;0.65;;;3.50;1.00;;;;;;5015902;28;20045;-80
2023/11/29 05:55:44;;;;;;;0.95;0.60;;;3.40;14.40;;;;;;5005547;28;20108;-79
2023/11/29 05:58:11;;;;;;;0.98;0.60;;;3.30;53.80;;;;;;5017237;28;20041;-80
2023/11/29 06:00:39;;;;;;;0.90;0.77;;;3.30;99.90;;;;;;5006506;28;20049;-79
2023/11/29 06:03:07;;;;;;;1.00;0.70;;;3.30;1.00;;;;;;5020529;28;20045;-80
2023/11/29 06:05:34;;;;;;;0.93;0.75;;;3.30;76.80;;;;;;5021050;28;20045;-79
2023/11/29 06:08:01;;;;;;;0.70;0.70;;;3.30;99.90;;;;;;5016734;28;20549;-79
2023/11/29 06:10:28;;;;;;;0.95;0.57;;;3.30;99.90;;;;;;4997304;28;20061;-79
2023/11/29 06:12:56;;;;;;;0.55;0.50;;;3.30;99.90;;;;;;5008703;28;20115;-79
2023/11/29 06:15:23;;;;;;;1.00;0.55;;;3.40;1.00;;;;;;5006953;28;20140;-78
2023/11/29 06:17:50;;;;;;;0.73;0.60;;;3.40;1.00;;;;;;5020007;28;20053;-79
2023/11/29 06:20:21;;;;;;;1.08;0.82;;;3.40;1.00;;;;;;5021792;28;20363;-80
2023/11/29 06:22:49;;;;;;;1.25;0.88;;;3.50;99.90;;;;;;4995435;28;20498;-79
2023/11/29 06:25:16;;;;;;;0.70;0.68;;;3.40;1.00;;;;;;5008615;28;20053;-80
2023/11/29 06:27:45;;;;;;;1.27;0.88;;;3.40;1.00;;;;;;5009504;28;20053;-79
2023/11/29 06:30:12;;;;;;;0.60;0.57;;;3.40;1.00;;;;;;5024768;28;20053;-79
2023/11/29 06:32:41;;;;;;;1.67;0.95;;;3.30;1.00;;;;;;5022630;28;20158;-79
2023/11/29 06:35:12;;;;;;;0.95;0.55;;;3.30;1.00;;;;;;5024074;28;20046;-79
2023/11/29 06:37:40;;;;;;;0.70;0.60;;;3.20;28.30;;;;;;5003631;28;20046;-79
2023/11/29 06:40:10;;;;;;;1.25;0.90;;;3.20;45.10;;;;;;5021639;28;20213;-79
2023/11/29 06:42:41;;;;;;;1.05;0.55;;;3.10;96.30;;;;;;5018776;28;20060;-79
2023/11/29 06:45:09;;;;;;;1.08;0.65;;;3.00;14.20;;;;;;5021268;28;20527;-80
2023/11/29 06:47:37;;;;;;;1.55;0.80;;;3.00;99.90;;;;;;5007459;28;20056;-80
2023/11/29 06:50:04;;;;;;;1.27;0.73;;;2.90;99.90;;;;;;5008146;28;20053;-80
2023/11/29 06:52:31;;;;;;;1.48;0.93;;;2.80;99.90;;;;;;5023309;28;20053;-79
2023/11/29 06:54:59;;;;;;;1.10;0.80;;;2.70;99.90;;;;;;5026162;28;20111;-79
2023/11/29 06:57:26;;;;;;;1.50;0.90;;;2.60;99.90;;;;;;5028023;28;20077;-79
2023/11/29 06:59:52;;;;;;;1.48;0.85;;;2.60;99.90;;;;;;5018528;28;20148;-79
2023/11/29 07:02:20;;;;;;;1.08;0.68;;;2.50;1.00;;;;;;5008339;28;20128;-79
2023/11/29 07:04:48;;;;;;;0.82;0.60;;;2.50;1.00;;;;;;5023796;28;20081;-79
2023/11/29 07:07:16;;;;;;;1.23;0.93;;;2.40;1.00;;;;;;5009693;28;20053;-79
2023/11/29 07:09:43;;;;;;;1.52;0.77;;;2.40;1.00;;;;;;5023579;28;20186;-79
2023/11/29 07:12:13;;;;;;;1.42;1.08;;;2.30;9.40;;;;;;5020046;28;20060;-80
2023/11/29 07:14:41;;;;;;;1.20;1.00;;;2.30;99.90;;;;;;5006817;28;20061;-80
2023/11/29 07:17:09;;;;;;;1.55;1.10;;;2.20;14.80;;;;;;5013407;28;20136;-80
2023/11/29 07:19:40;;;;;;;0.95;0.77;;;2.10;1.00;;;;;;5011512;28;20054;-80
2023/11/29 07:22:07;;;;;;;1.30;0.82;;;2.10;99.90;;;;;;5026290;28;20191;-80
2023/11/29 07:24:34;;;;;;;1.00;0.77;;;2.10;99.90;;;;;;5025384;28;20049;-80
2023/11/29 07:27:01;;;;;;;1.23;0.88;;;2.00;99.90;;;;;;5022407;28;20408;-80
2023/11/29 07:29:29;;;;;;;1.30;1.00;;;2.00;99.90;;;;;;4994503;28;20103;-80
2023/11/29 07:31:57;;;;;;;1.17;0.82;;;2.00;99.90;;;;;;5022888;28;20145;-80
2023/11/29 07:34:25;;;;;;;1.38;0.93;;;1.90;99.90;;;;;;5026495;28;20434;-80
2023/11/29 07:36:52;;;;;;;1.50;0.80;;;1.90;99.90;;;;;;5022906;28;20045;-80
2023/11/29 07:39:19;;;;;;;1.98;0.93;;;1.80;1.00;;;;;;5021353;28;20053;-82
2023/11/29 07:41:47;;;;;;;1.10;0.88;;;1.80;99.90;;;;;;5005910;28;20068;-80
2023/11/29 07:44:15;;;;;;;1.92;1.42;;;1.70;99.90;;;;;;5023749;28;20111;-80
2023/11/29 07:46:42;;;;;;;1.73;1.10;;;1.60;99.90;;;;;;5023283;28;20057;-80
2023/11/29 07:49:12;;;;;;;1.15;0.85;;;1.60;99.90;;;;;;5009869;28;20135;-81
2023/11/29 07:51:40;;;;;;;1.30;0.80;;;1.60;99.90;;;;;;5023463;28;20940;-80
2023/11/29 07:54:07;;;;;;;1.42;0.90;;;1.60;99.90;;;;;;5022291;28;20053;-80
2023/11/29 07:56:34;;;;;;;0.82;0.70;;;1.60;1.00;;;;;;4991260;28;20045;-81
2023/11/29 07:59:01;;;;;;;1.67;0.93;;;1.60;36.80;;;;;;5020260;28;20053;-81
2023/11/29 08:01:28;;;;;;;2.05;1.27;;;1.60;99.90;;;;;;5023395;28;20049;-80
2023/11/29 08:03:55;;;;;;;1.67;1.17;;;1.60;1.00;;;;;;5023802;28;20060;-81
2023/11/29 08:06:22;;;;;;;2.38;1.63;;;1.60;99.90;;;;;;5022252;28;20136;-83
2023/11/29 08:08:50;;;;;;;2.28;1.10;;;1.50;5.50;;;;;;5006034;28;20061;-80
2023/11/29 08:11:17;;;;;;;1.58;1.05;;;1.60;99.90;;;;;;5006058;28;20041;-80
2023/11/29 08:13:44;;;;;;;1.60;1.00;;;1.60;99.90;;;;;;5022505;28;20136;-80
2023/11/29 08:16:10;;;;;;;1.75;1.00;;;1.60;99.90;;;;;;5000500;28;20041;-80
2023/11/29 08:18:37;;;;;;;1.52;1.08;;;1.70;99.90;;;;;;5001992;28;20061;-79
2023/11/29 08:21:05;;;;;;;1.67;1.10;;;1.70;99.90;;;;;;5019741;28;20048;-81
2023/11/29 08:23:32;;;;;;;1.48;1.05;;;1.80;99.90;;;;;;5019287;28;20054;-79
2023/11/29 08:25:59;;;;;;;1.30;0.80;;;1.80;99.90;;;;;;5000481;28;20049;-78
2023/11/29 08:28:26;;;;;;;1.10;0.80;;;1.80;99.90;;;;;;5002882;28;20061;-79
2023/11/29 08:30:53;;;;;;;1.40;1.00;;;1.80;99.90;;;;;;5003093;28;20154;-79
2023/11/29 08:33:20;;;;;;;1.38;0.93;;;1.90;99.90;;;;;;5019084;28;20544;-78
2023/11/29 08:35:47;;;;;;;1.17;0.80;;;1.90;99.90;;;;;;5004216;28;20150;-80
2023/11/29 08:38:14;;;;;;;1.65;1.08;;;2.00;96.00;;;;;;5018213;28;20063;-79
2023/11/29 08:40:42;;;;;;;1.55;1.10;;;2.00;1.00;;;;;;5006222;28;20064;-80
2023/11/29 08:43:09;;;;;;;1.48;1.02;;;2.10;1.00;;;;;;5020000;28;20056;-79
2023/11/29 08:45:49;;;;;;;1.25;0.82;;;2.20;99.40;;;;;;4986339;28;20066;-80
2023/11/29 08:48:16;;;;;;;1.13;0.80;;;2.30;99.90;;;;;;5018660;28;20045;-80
2023/11/29 08:50:43;;;;;;;1.27;0.85;;;2.40;99.90;;;;;;5018627;28;20171;-81
2023/11/29 08:53:11;;;;;;;1.52;1.10;;;2.50;99.90;;;;;;5018684;28;20136;-80
2023/11/29 08:55:42;;;;;;;1.10;0.90;;;2.60;99.90;;;;;;5020542;28;20053;-79
2023/11/29 08:58:09;;;;;;;1.45;1.05;;;2.70;99.90;;;;;;5010807;28;20148;-81
2023/11/29 09:00:36;;;;;;;1.08;0.80;;;2.80;99.90;;;;;;4987568;28;20050;-80
2023/11/29 09:03:03;;;;;;;1.67;1.05;;;2.90;99.90;;;;;;5003992;28;20362;-80
2023/11/29 09:05:31;;;;;;;1.08;0.82;;;3.00;45.00;;;;;;5003879;28;20053;-80
2023/11/29 09:07:57;;;;;;;1.27;0.90;;;3.10;1.00;;;;;;5018103;28;20171;-80
2023/11/29 09:10:24;;;;;;;1.27;0.90;;;3.10;99.90;;;;;;5002306;28;20494;-80
2023/11/29 09:12:51;;;;;;;1.70;1.40;;;3.20;99.90;;;;;;5002849;28;20143;-80
2023/11/29 09:15:18;;;;;;;0.95;0.75;;;3.30;99.90;;;;;;5003260;28;20103;-80
2023/11/29 09:17:46;;;;;;;1.55;0.98;;;3.30;9.00;;;;;;5016057;28;20053;-80
2023/11/29 09:20:13;;;;;;;1.20;0.60;;;3.40;1.00;;;;;;5000937;28;20056;-80
2023/11/29 09:22:40;;;;;;;1.45;1.02;;;3.50;99.90;;;;;;5001055;28;20061;-80
2023/11/29 09:25:07;;;;;;;1.75;1.33;;;3.50;99.90;;;;;;5016534;28;20119;-79
2023/11/29 09:27:34;;;;;;;1.70;1.17;;;3.60;11.40;;;;;;5018387;28;20048;-80
2023/11/29 09:30:01;;;;;;;1.67;1.13;;;3.60;99.90;;;;;;5018671;28;20454;-80
2023/11/29 09:32:32;;;;;;;1.05;0.88;;;3.70;99.90;;;;;;5018914;28;20658;-80
2023/11/29 09:34:59;;;;;;;1.30;0.90;;;3.70;99.90;;;;;;5018433;28;20053;-80
2023/11/29 09:37:26;;;;;;;1.90;1.48;;;3.70;1.00;;;;;;5001905;28;20075;-80
2023/11/29 09:39:53;;;;;;;1.30;0.93;;;3.70;1.00;;;;;;4986078;28;20049;-80
2023/11/29 09:42:20;;;;;;;1.80;1.08;;;3.70;1.00;;;;;;5018060;28;20505;-81
2023/11/29 09:44:49;;;;;;;1.52;1.08;;;3.80;1.00;;;;;;5018987;28;20048;-80
2023/11/29 09:47:17;;;;;;;1.70;0.93;;;3.80;99.90;;;;;;5018533;28;20136;-80
2023/11/29 09:49:44;;;;;;;1.63;0.93;;;3.90;99.90;;;;;;5018625;28;20050;-81
2023/11/29 09:52:10;;;;;;;1.63;1.17;;;3.90;99.90;;;;;;5017839;28;20107;-80
2023/11/29 09:54:37;;;;;;;1.20;0.90;;;3.90;19.60;;;;;;5017580;28;20073;-81
2023/11/29 09:57:04;;;;;;;1.90;1.25;;;4.00;1.00;;;;;;4985617;28;20555;-80
2023/11/29 09:59:31;;;;;;;1.30;0.90;;;4.00;1.00;;;;;;5018520;28;20053;-80
2023/11/29 10:02:01;;;;;;;1.25;1.00;;;4.10;99.90;;;;;;5003403;28;20060;-82
2023/11/29 10:04:28;;;;;;;1.60;1.20;;;4.10;99.90;;;;;;5021786;28;20613;-82
2023/11/29 10:06:55;;;;;;;1.35;0.88;;;4.10;67.20;;;;;;5022371;28;20103;-81
2023/11/29 10:09:22;;;;;;;1.55;1.10;;;4.10;1.00;;;;;;4988861;28;20049;-81
2023/11/29 10:11:49;;;;;;;1.52;1.20;;;4.20;1.00;;;;;;5005958;28;20119;-77
2023/11/29 10:14:16;;;;;;;1.52;1.05;;;4.20;99.90;;;;;;5022546;28;20053;-78
2023/11/29 10:16:43;;;;;;;1.80;1.17;;;4.30;99.90;;;;;;5021178;28;20537;-78
2023/11/29 10:19:10;;;;;;;2.47;1.48;;;4.40;99.90;;;;;;5021984;28;20410;-77
2023/11/29 10:21:41;;;;;;;2.47;1.40;;;4.40;99.90;;;;;;5022137;28;20054;-78
2023/11/29 10:24:09;;;;;;;2.10;1.10;;;4.50;31.90;;;;;;5013499;28;20502;-77
2023/11/29 10:26:36;;;;;;;1.48;1.30;;;4.50;1.00;;;;;;5020199;28;20119;-78
2023/11/29 10:29:03;;;;;;;2.35;1.60;;;4.50;1.00;;;;;;5022213;28;20060;-78
2023/11/29 10:31:31;;;;;;;3.38;2.60;;;4.60;99.90;;;;;;5022704;28;20466;-78
2023/11/29 10:33:58;;;;;;;4.05;1.95;;;4.70;99.90;;;;;;5005016;28;20111;-78
2023/11/29 10:36:25;;;;;;;3.90;2.38;;;4.70;99.90;;;;;;5022238;28;20060;-78
2023/11/29 10:38:56;;;;;;;3.95;3.20;;;4.80;99.90;;;;;;5002028;28;20551;-77
2023/11/29 10:41:23;;;;;;;5.90;3.75;;;4.80;99.90;;;;;;5004145;28;20048;-78
2023/11/29 10:43:50;;;;;;;7.88;5.53;;;4.90;99.90;;;;;;5005855;28;20060;-78
2023/11/29 10:46:21;;;;;;;7.95;6.05;;;4.80;99.90;;;;;;5022237;28;20111;-77
2023/11/29 10:48:51;;;;;;;6.32;4.72;;;4.70;99.90;;;;;;5021804;28;20076;-78
2023/11/29 10:51:18;;;;;;;6.70;4.95;;;4.80;99.90;;;;;;5021859;28;20045;-78
2023/11/29 10:53:48;;;;;;;5.45;4.28;;;4.90;99.90;;;;;;5021141;28;20494;-78
2023/11/29 10:56:16;;;;;;;7.45;5.03;;;4.90;99.90;;;;;;5005739;28;20054;-78
2023/11/29 10:58:48;;;;;;;7.15;5.43;;;5.00;99.90;;;;;;5021942;28;20080;-76
2023/11/29 11:01:15;;;;;;;7.80;5.88;;;5.00;99.90;;;;;;5005076;28;20061;-76
2023/11/29 11:03:46;;;;;;;6.63;4.88;;;5.00;99.90;;;;;;5021989;28;20053;-76
2023/11/29 11:06:23;;;;;;;5.20;4.50;;;5.10;99.90;;;;;;5005630;28;20529;-76
2023/11/29 11:08:50;;;;;;;5.28;4.18;;;5.20;99.90;;;;;;5021786;28;20131;-76
2023/11/29 11:11:39;;;;;;;6.32;5.10;;;5.30;99.90;;;;;;4988476;28;20053;-77
2023/11/29 11:14:14;;;;;;;6.30;4.88;;;5.40;93.40;;;;;;5021516;28;20049;-77
2023/11/29 11:17:06;;;;;;;10.07;6.68;;;5.50;87.80;;;;;;5022612;28;20058;-77
2023/11/29 11:19:34;;;;;;;8.07;5.33;;;5.60;59.90;;;;;;5020810;28;20518;-77
2023/11/29 11:22:27;;;;;;;6.97;4.65;;;5.60;62.10;;;;;;5022605;28;20601;-76
2023/11/29 11:25:05;;;;;;;5.55;4.35;;;5.70;52.90;;;;;;5021405;28;20053;-77
2023/11/29 11:27:38;;;;;;;5.25;3.78;;;5.80;38.70;;;;;;5003307;28;20045;-76
2023/11/29 11:30:14;;;;;;;6.07;3.92;;;5.90;15.70;;;;;;5005084;28;20311;-76
2023/11/29 11:32:47;;;;;;;5.35;4.07;;;6.00;5.20;;;;;;5010046;28;20140;-76
2023/11/29 11:35:27;;;;;;;5.95;3.30;;;6.00;1.00;;;;;;5021268;28;20055;-76
2023/11/29 11:37:58;;;;;;;4.90;3.17;;;6.00;1.00;;;;;;5018994;28;20054;-77
2023/11/29 11:40:26;;;;;;;4.88;3.10;;;6.00;1.00;;;;;;5020130;28;20049;-76
2023/11/29 11:42:53;;;;;;;4.47;3.53;;;6.10;1.00;;;;;;5003808;28;20060;-77
2023/11/29 11:45:21;;;;;;;4.35;3.08;;;6.10;1.00;;;;;;5020378;28;20049;-76
2023/11/29 11:47:48;;;;;;;3.22;2.22;;;6.20;1.00;;;;;;5003904;28;20059;-76
2023/11/29 11:50:18;;;;;;;3.60;2.53;;;6.40;1.00;;;;;;5020355;28;20054;-76
2023/11/29 11:52:45;;;;;;;6.10;3.90;;;6.50;1.00;;;;;;5019590;28;20992;-77
2023/11/29 11:55:13;;;;;;;6.00;3.58;;;6.50;1.00;;;;;;5018588;28;20057;-76
2023/11/29 11:57:40;;;;;;;4.78;3.08;;;6.60;1.00;;;;;;5020073;28;20053;-76
2023/11/29 12:00:08;;;;;;;5.53;4.20;;;6.80;1.00;;;;;;5020293;28;20403;-77
2023/11/29 12:02:36;;;;;;;4.88;3.70;;;6.90;1.00;;;;;;5021280;28;20487;-77
2023/11/29 12:05:04;;;;;;;5.07;4.18;;;6.90;1.00;;;;;;5020462;28;20129;-76
2023/11/29 12:07:39;;;;;;;4.20;3.30;;;7.10;1.00;;;;;;5003661;28;20053;-77
2023/11/29 12:10:12;;;;;;;3.40;2.88;;;7.30;1.00;;;;;;5002903;28;20048;-76
2023/11/29 12:12:40;;;;;;;3.00;2.15;;;7.50;1.00;;;;;;5020921;28;20698;-76
2023/11/29 12:15:13;;;;;;;3.17;2.47;;;7.70;1.00;;;;;;5020311;28;20054;-76
2023/11/29 12:17:40;;;;;;;4.03;3.42;;;7.90;1.00;;;;;;5020415;28;20080;-77
2023/11/29 12:20:07;;;;;;;5.15;4.00;;;7.90;1.00;;;;;;5019836;28;20099;-77
2023/11/29 12:22:38;;;;;;;4.97;4.25;;;7.90;1.00;;;;;;5019022;28;20558;-77
2023/11/29 12:25:12;;;;;;;4.40;3.60;;;8.00;1.00;;;;;;5018773;28;20053;-77
2023/11/29 12:27:44;;;;;;;4.40;3.55;;;8.20;1.00;;;;;;5018853;28;20055;-77
2023/11/29 12:30:11;;;;;;;5.75;4.70;;;8.40;1.00;;;;;;5003494;28;20054;-76
2023/11/29 12:32:38;;;;;;;8.25;4.32;;;8.30;1.00;;;;;;5019467;28;20049;-75
2023/11/29 12:35:07;;;;;;;4.60;3.70;;;8.50;1.00;;;;;;5003528;28;20539;-73
2023/11/29 12:37:34;;;;;;;4.60;3.70;;;8.60;1.00;;;;;;5003030;28;20115;-75
2023/11/29 12:40:01;;;;;;;5.20;3.67;;;8.70;1.00;;;;;;5018472;28;20830;-73
2023/11/29 12:42:29;;;;;;;3.13;2.83;;;8.80;1.00;;;;;;5019508;28;20057;-73
2023/11/29 12:44:55;;;;;;;4.07;3.08;;;8.90;1.00;;;;;;5020636;28;20049;-74
2023/11/29 12:47:22;;;;;;;3.20;2.50;;;9.10;1.00;;;;;;5019342;28;20758;-76
2023/11/29 12:49:50;;;;;;;3.67;2.50;;;9.40;1.00;;;;;;5019794;28;20424;-80
2023/11/29 12:52:17;;;;;;;4.32;3.20;;;9.70;1.00;;;;;;5018683;28;20053;-79
2023/11/29 12:54:44;;;;;;;4.10;3.00;;;9.80;1.00;;;;;;5001320;28;20442;-81
2023/11/29 12:57:11;;;;;;;4.50;3.83;;;9.70;1.00;;;;;;5018717;28;20516;-80
2023/11/29 12:59:38;;;;;;;4.53;3.15;;;9.60;1.00;;;;;;5001044;28;20049;-80
2023/11/29 13:02:06;;;;;;;3.45;2.20;;;9.70;1.00;;;;;;5018209;28;20056;-79
2023/11/29 13:04:33;;;;;;;3.08;2.10;;;9.90;1.00;;;;;;5017260;28;20052;-80